createdAt,value
2019-05-05T00:01:09.878Z,4.10
2019-05-05T00:03:46.306Z,4.10
2019-05-05T00:06:15.620Z,4.00
2019-05-05T00:08:45.691Z,4.00
2019-05-05T00:11:35.005Z,4.00
2019-05-05T00:14:08.454Z,4.00
2019-05-05T00:16:57.532Z,4.00
2019-05-05T00:19:32.523Z,3.90
2019-05-05T00:21:57.864Z,3.90
2019-05-05T00:24:27.166Z,3.90
2019-05-05T00:26:56.454Z,3.90
2019-05-05T00:29:25.814Z,3.90
2019-05-05T00:31:57.898Z,3.90
2019-05-05T00:34:27.259Z,3.90
2019-05-05T00:36:56.558Z,3.90
2019-05-05T00:39:25.858Z,3.90
2019-05-05T00:41:55.594Z,3.90
2019-05-05T00:44:24.949Z,3.90
2019-05-05T00:46:58.638Z,3.90
2019-05-05T00:49:45.632Z,3.90
2019-05-05T00:52:05.085Z,3.80
2019-05-05T00:54:34.818Z,3.80
2019-05-05T00:57:04.521Z,3.90
2019-05-05T00:59:34.736Z,3.90
2019-05-05T01:02:05.994Z,3.90
2019-05-05T01:04:44.530Z,3.90
2019-05-05T01:07:14.341Z,3.90
2019-05-05T01:09:45.094Z,3.90
2019-05-05T01:12:15.624Z,3.90
2019-05-05T01:14:44.969Z,3.90
2019-05-05T01:17:15.439Z,3.90
2019-05-05T01:19:59.991Z,4.00
2019-05-05T01:22:17.098Z,3.90
2019-05-05T01:24:47.278Z,4.00
2019-05-05T01:27:18.114Z,4.00
2019-05-05T01:29:48.338Z,4.00
2019-05-05T01:32:21.677Z,4.00
2019-05-05T01:34:50.965Z,4.00
2019-05-05T01:37:25.463Z,4.00
2019-05-05T01:39:59.546Z,4.00
2019-05-05T01:42:28.984Z,4.00
2019-05-05T01:44:58.330Z,4.10
2019-05-05T01:47:30.556Z,4.10
2019-05-05T01:49:59.834Z,4.10
2019-05-05T01:52:29.136Z,4.10
2019-05-05T01:54:58.410Z,4.10
2019-05-05T01:57:27.783Z,4.20
2019-05-05T01:59:57.200Z,4.30
2019-05-05T02:02:26.578Z,4.30
2019-05-05T02:04:55.863Z,4.30
2019-05-05T02:07:25.236Z,4.40
2019-05-05T02:09:55.357Z,4.50
2019-05-05T02:12:25.009Z,4.50
2019-05-05T02:14:55.094Z,4.60
2019-05-05T02:17:24.879Z,4.60
2019-05-05T02:19:54.909Z,4.60
2019-05-05T02:22:27.626Z,4.60
2019-05-05T02:24:57.050Z,4.60
2019-05-05T02:27:26.414Z,4.60
2019-05-05T02:30:16.169Z,4.60
2019-05-05T02:32:49.651Z,4.60
2019-05-05T02:35:19.091Z,4.60
2019-05-05T02:37:48.362Z,4.60
2019-05-05T02:40:18.020Z,4.60
2019-05-05T02:42:47.855Z,4.60
2019-05-05T02:45:25.062Z,4.60
2019-05-05T02:48:05.973Z,4.70
2019-05-05T02:51:00.156Z,4.70
2019-05-05T02:53:26.823Z,4.70
2019-05-05T02:55:59.872Z,4.80
2019-05-05T02:58:30.071Z,4.80
2019-05-05T03:01:18.583Z,4.80
2019-05-05T03:03:49.109Z,4.80
2019-05-05T03:06:18.562Z,4.80
2019-05-05T03:08:50.118Z,4.80
2019-05-05T03:11:19.859Z,4.80
2019-05-05T03:13:53.560Z,4.80
2019-05-05T03:16:26.092Z,4.70
2019-05-05T03:18:56.983Z,4.70
2019-05-05T03:21:26.684Z,4.60
2019-05-05T03:23:56.278Z,4.60
2019-05-05T03:26:25.736Z,4.60
2019-05-05T03:28:56.812Z,4.60
2019-05-05T03:31:26.727Z,4.60
2019-05-05T03:33:56.356Z,4.60
2019-05-05T03:36:27.155Z,4.60
2019-05-05T03:38:56.690Z,4.60
2019-05-05T03:41:28.920Z,4.60
2019-05-05T03:44:04.706Z,4.50
2019-05-05T03:46:34.911Z,4.50
2019-05-05T03:49:04.957Z,4.50
2019-05-05T03:51:34.689Z,4.50
2019-05-05T03:54:04.429Z,4.50
2019-05-05T03:56:34.724Z,4.60
2019-05-05T03:59:04.990Z,4.60
2019-05-05T04:01:38.363Z,4.60
2019-05-05T04:04:28.976Z,4.60
2019-05-05T04:07:01.121Z,4.60
2019-05-05T04:09:30.467Z,4.70
2019-05-05T04:12:00.959Z,4.70
2019-05-05T04:14:34.901Z,4.70
2019-05-05T04:17:05.934Z,4.80
2019-05-05T04:19:36.927Z,4.80
2019-05-05T04:22:06.248Z,4.90
2019-05-05T04:24:35.523Z,4.90
2019-05-05T04:27:09.135Z,5.00
2019-05-05T04:29:38.419Z,5.00
2019-05-05T04:32:07.785Z,5.10
2019-05-05T04:34:37.169Z,5.10
2019-05-05T04:37:06.479Z,5.20
2019-05-05T04:39:35.783Z,5.20
2019-05-05T04:42:05.084Z,5.30
2019-05-05T04:44:37.671Z,5.40
2019-05-05T04:47:08.619Z,5.40
2019-05-05T04:49:44.395Z,5.50
2019-05-05T04:52:29.851Z,5.50
2019-05-05T04:54:59.237Z,5.60
2019-05-05T04:57:28.667Z,5.70
2019-05-05T04:59:57.996Z,5.70
2019-05-05T05:02:28.919Z,5.80
2019-05-05T05:04:59.871Z,5.80
2019-05-05T05:07:29.161Z,5.90
2019-05-05T05:09:58.499Z,6.00
2019-05-05T05:12:27.803Z,6.00
2019-05-05T05:14:58.179Z,6.00
2019-05-05T05:17:29.093Z,6.00
2019-05-05T05:19:58.395Z,6.00
2019-05-05T05:22:27.701Z,6.00
2019-05-05T05:24:57.056Z,6.00
2019-05-05T05:27:27.921Z,6.00
2019-05-05T05:29:57.343Z,6.10
2019-05-05T05:32:26.671Z,6.10
2019-05-05T05:34:56.015Z,6.20
2019-05-05T05:37:27.999Z,6.30
2019-05-05T05:40:04.641Z,6.40
2019-05-05T05:42:34.023Z,6.40
2019-05-05T05:45:11.631Z,6.50
2019-05-05T05:47:54.857Z,6.60
2019-05-05T05:50:34.963Z,6.60
2019-05-05T05:53:04.802Z,6.70
2019-05-05T05:55:36.061Z,6.80
2019-05-05T05:58:05.636Z,6.80
2019-05-05T06:00:37.531Z,6.90
2019-05-05T06:03:06.835Z,6.90
2019-05-05T06:05:36.111Z,7.10
2019-05-05T06:08:05.563Z,7.10
2019-05-05T06:10:34.888Z,7.10
2019-05-05T06:13:04.330Z,7.20
2019-05-05T06:15:35.986Z,7.30
2019-05-05T06:18:05.374Z,7.40
2019-05-05T06:20:34.775Z,7.30
2019-05-05T06:23:04.271Z,7.40
2019-05-05T06:25:34.210Z,7.50
2019-05-05T06:28:04.258Z,7.50
2019-05-05T06:30:33.855Z,7.50
2019-05-05T06:33:04.925Z,7.50
2019-05-05T06:35:34.590Z,7.50
2019-05-05T06:38:04.718Z,7.50
2019-05-05T06:40:35.871Z,7.40
2019-05-05T06:43:09.767Z,7.30
2019-05-05T06:45:44.436Z,7.40
2019-05-05T06:48:13.755Z,7.40
2019-05-05T06:50:43.827Z,7.50
2019-05-05T06:53:13.635Z,7.50
2019-05-05T06:55:44.440Z,7.50
2019-05-05T06:58:13.848Z,7.50
2019-05-05T07:00:44.092Z,7.50
2019-05-05T07:03:14.072Z,7.60
2019-05-05T07:05:43.913Z,7.60
2019-05-05T07:08:13.796Z,7.70
2019-05-05T07:10:44.399Z,7.80
2019-05-05T07:13:14.159Z,7.80
2019-05-05T07:15:43.875Z,7.90
2019-05-05T07:18:14.261Z,8.00
2019-05-05T07:20:44.179Z,8.00
2019-05-05T07:23:14.552Z,8.00
2019-05-05T07:25:46.002Z,8.00
2019-05-05T07:28:15.063Z,8.10
2019-05-05T07:30:44.413Z,8.10
2019-05-05T07:33:14.901Z,8.10
2019-05-05T07:35:58.657Z,8.20
2019-05-05T07:38:20.039Z,8.20
2019-05-05T07:40:49.419Z,8.10
2019-05-05T07:43:19.284Z,8.10
2019-05-05T07:45:48.634Z,8.20
2019-05-05T07:48:18.823Z,8.20
2019-05-05T07:50:59.719Z,8.30
2019-05-05T07:53:24.345Z,8.30
2019-05-05T07:55:56.124Z,8.40
2019-05-05T07:58:25.418Z,8.40
2019-05-05T08:00:54.779Z,8.40
2019-05-05T08:03:24.166Z,8.40
2019-05-05T08:05:54.489Z,8.50
2019-05-05T08:08:24.423Z,8.50
2019-05-05T08:10:54.618Z,8.30
2019-05-05T08:13:24.396Z,8.30
2019-05-05T08:15:59.783Z,8.40
2019-05-05T08:18:30.675Z,8.50
2019-05-05T08:21:04.298Z,8.60
2019-05-05T08:23:38.568Z,8.80
2019-05-05T08:26:18.690Z,8.80
2019-05-05T08:29:05.795Z,8.80
2019-05-05T08:31:53.661Z,8.80
2019-05-05T08:34:24.491Z,8.80
2019-05-05T08:36:54.072Z,8.80
2019-05-05T08:39:24.439Z,9.00
2019-05-05T08:41:53.974Z,9.10
2019-05-05T08:44:23.727Z,9.10
2019-05-05T08:46:53.803Z,9.20
2019-05-05T08:49:24.418Z,9.20
2019-05-05T08:51:57.923Z,9.10
2019-05-05T08:54:27.200Z,9.30
2019-05-05T08:56:56.503Z,9.40
2019-05-05T08:59:25.775Z,9.40
2019-05-05T09:01:55.066Z,9.50
2019-05-05T09:04:24.754Z,9.50
2019-05-05T09:06:54.398Z,9.50
2019-05-05T09:09:24.251Z,9.50
2019-05-05T09:11:54.193Z,9.40
2019-05-05T09:14:24.074Z,9.20
2019-05-05T09:16:53.758Z,9.20
2019-05-05T09:19:24.041Z,9.20
2019-05-05T09:21:54.249Z,9.10
2019-05-05T09:24:25.782Z,9.20
2019-05-05T09:27:05.412Z,9.30
2019-05-05T09:29:36.418Z,9.20
2019-05-05T09:32:05.901Z,9.30
2019-05-05T09:34:37.996Z,9.40
2019-05-05T09:37:07.424Z,9.40
2019-05-05T09:39:36.966Z,9.50
2019-05-05T09:42:06.254Z,9.60
2019-05-05T09:44:35.546Z,9.80
2019-05-05T09:47:05.203Z,9.90
2019-05-05T09:49:34.626Z,10.10
2019-05-05T09:52:05.031Z,10.10
2019-05-05T09:54:34.702Z,10.20
2019-05-05T09:57:04.583Z,10.30
2019-05-05T09:59:34.644Z,10.40
2019-05-05T10:02:04.573Z,10.50
2019-05-05T10:04:35.810Z,10.70
2019-05-05T10:07:05.340Z,10.80
2019-05-05T10:09:36.255Z,10.90
2019-05-05T10:12:05.620Z,11.00
2019-05-05T10:14:36.638Z,11.10
2019-05-05T10:17:05.926Z,11.10
2019-05-05T10:19:36.200Z,11.00
2019-05-05T10:22:05.631Z,10.90
2019-05-05T10:24:36.586Z,10.80
2019-05-05T10:27:05.948Z,10.80
2019-05-05T10:29:35.242Z,10.70
2019-05-05T10:32:07.216Z,10.50
2019-05-05T10:34:36.530Z,10.40
2019-05-05T10:37:05.902Z,10.30
2019-05-05T10:39:39.518Z,10.30
2019-05-05T10:42:11.716Z,10.20
2019-05-05T10:44:44.594Z,10.20
2019-05-05T10:47:14.068Z,10.10
2019-05-05T10:49:44.264Z,10.00
2019-05-05T10:52:14.678Z,10.00
2019-05-05T10:54:45.011Z,10.00
2019-05-05T10:57:18.005Z,10.10
2019-05-05T10:59:45.493Z,10.30
2019-05-05T11:02:14.913Z,10.50
2019-05-05T11:04:44.392Z,10.60
2019-05-05T11:07:14.515Z,10.70
2019-05-05T11:09:44.453Z,10.80
2019-05-05T11:12:14.358Z,10.50
2019-05-05T11:14:44.390Z,10.10
2019-05-05T11:17:14.370Z,9.70
2019-05-05T11:19:44.277Z,9.60
2019-05-05T11:22:14.635Z,9.50
2019-05-05T11:24:57.250Z,9.50
2019-05-05T11:27:15.263Z,9.40
2019-05-05T11:30:03.942Z,9.30
2019-05-05T11:32:51.431Z,9.30
2019-05-05T11:35:24.336Z,9.30
2019-05-05T11:37:54.254Z,9.40
2019-05-05T11:40:33.378Z,9.40
2019-05-05T11:43:04.686Z,9.70
2019-05-05T11:45:34.514Z,9.90
2019-05-05T11:48:05.462Z,9.90
2019-05-05T11:50:34.805Z,10.00
2019-05-05T11:53:08.224Z,10.00
2019-05-05T11:55:37.508Z,10.00
2019-05-05T11:58:07.610Z,10.10
2019-05-05T12:00:37.720Z,10.20
2019-05-05T12:03:07.246Z,10.20
2019-05-05T12:05:36.623Z,10.20
2019-05-05T12:08:05.992Z,10.20
2019-05-05T12:10:36.943Z,10.20
2019-05-05T12:13:07.942Z,10.30
2019-05-05T12:15:37.385Z,10.30
2019-05-05T12:18:06.752Z,10.40
2019-05-05T12:20:39.907Z,10.40
2019-05-05T12:23:09.551Z,10.30
2019-05-05T12:25:49.461Z,10.20
2019-05-05T12:28:24.178Z,10.20
2019-05-05T12:30:55.958Z,10.20
2019-05-05T12:33:25.381Z,10.30
2019-05-05T12:35:54.849Z,10.30
2019-05-05T12:38:24.244Z,10.20
2019-05-05T12:40:53.659Z,10.20
2019-05-05T12:43:24.680Z,10.30
2019-05-05T12:46:10.744Z,10.30
2019-05-05T12:48:43.693Z,10.40
2019-05-05T12:51:14.620Z,10.50
2019-05-05T12:53:43.647Z,10.50
2019-05-05T12:56:14.558Z,10.60
2019-05-05T12:58:44.098Z,10.60
2019-05-05T13:01:15.107Z,10.80
2019-05-05T13:03:44.426Z,10.90
2019-05-05T13:06:14.639Z,10.90
2019-05-05T13:08:44.789Z,10.90
2019-05-05T13:11:15.828Z,10.90
2019-05-05T13:13:45.919Z,10.80
2019-05-05T13:16:15.297Z,10.20
2019-05-05T13:18:44.643Z,9.60
2019-05-05T13:21:15.585Z,9.20
2019-05-05T13:23:49.191Z,8.80
2019-05-05T13:26:20.155Z,8.60
2019-05-05T13:28:49.455Z,8.50
2019-05-05T13:31:21.715Z,8.50
2019-05-05T13:33:54.837Z,8.50
2019-05-05T13:36:24.563Z,8.60
2019-05-05T13:38:54.594Z,8.70
2019-05-05T13:41:23.987Z,8.80
2019-05-05T13:43:54.445Z,8.90
2019-05-05T13:46:28.231Z,9.00
2019-05-05T13:48:59.256Z,9.20
2019-05-05T13:51:28.577Z,9.30
2019-05-05T13:53:57.940Z,9.50
2019-05-05T13:56:27.319Z,9.50
2019-05-05T13:58:56.683Z,9.60
2019-05-05T14:01:25.967Z,9.70
2019-05-05T14:03:57.744Z,9.80
2019-05-05T14:06:26.240Z,9.80
2019-05-05T14:08:55.534Z,9.80
2019-05-05T14:11:24.840Z,9.80
2019-05-05T14:13:54.271Z,9.80
2019-05-05T14:16:23.597Z,9.80
2019-05-05T14:18:53.695Z,9.70
2019-05-05T14:21:24.491Z,9.80
2019-05-05T14:23:55.541Z,9.80
2019-05-05T14:26:28.152Z,9.90
2019-05-05T14:28:56.079Z,9.80
2019-05-05T14:31:44.311Z,9.60
2019-05-05T14:34:14.868Z,9.40
2019-05-05T14:36:53.421Z,9.30
2019-05-05T14:39:23.919Z,9.10
2019-05-05T14:41:53.950Z,9.00
2019-05-05T14:44:24.052Z,8.90
2019-05-05T14:46:53.557Z,8.80
2019-05-05T14:49:24.606Z,8.70
2019-05-05T14:51:54.071Z,8.70
2019-05-05T14:54:23.421Z,8.70
2019-05-05T14:56:54.419Z,8.80
2019-05-05T14:59:26.695Z,8.90
2019-05-05T15:01:55.977Z,9.00
2019-05-05T15:04:26.968Z,9.00
2019-05-05T15:06:57.889Z,9.10
2019-05-05T15:09:37.489Z,9.30
2019-05-05T15:12:08.406Z,9.40
2019-05-05T15:14:37.708Z,9.50
2019-05-05T15:17:07.055Z,9.60
2019-05-05T15:19:37.517Z,9.80
2019-05-05T15:22:07.846Z,9.90
2019-05-05T15:24:40.052Z,9.90
2019-05-05T15:27:09.356Z,9.90
2019-05-05T15:29:38.689Z,9.80
2019-05-05T15:32:07.976Z,9.70
2019-05-05T15:34:37.331Z,9.70
2019-05-05T15:37:09.652Z,9.70
2019-05-05T15:39:39.023Z,9.80
2019-05-05T15:42:08.790Z,9.90
2019-05-05T15:44:40.857Z,9.90
2019-05-05T15:47:10.240Z,9.80
2019-05-05T15:49:39.603Z,9.70
2019-05-05T15:52:08.978Z,9.40
2019-05-05T15:54:38.423Z,9.10
2019-05-05T15:57:08.786Z,8.90
2019-05-05T15:59:38.781Z,8.80
2019-05-05T16:02:08.203Z,8.70
2019-05-05T16:04:37.591Z,8.60
2019-05-05T16:07:06.911Z,8.60
2019-05-05T16:09:36.259Z,8.60
2019-05-05T16:12:05.676Z,8.70
2019-05-05T16:14:36.683Z,8.70
2019-05-05T16:17:10.344Z,8.80
2019-05-05T16:19:50.123Z,8.80
2019-05-05T16:22:21.075Z,8.80
2019-05-05T16:25:08.252Z,8.80
2019-05-05T16:27:37.759Z,8.80
2019-05-05T16:30:09.178Z,8.80
2019-05-05T16:32:38.560Z,8.70
2019-05-05T16:35:09.295Z,8.60
2019-05-05T16:37:38.707Z,8.60
2019-05-05T16:40:09.173Z,8.60
2019-05-05T16:42:38.569Z,8.60
2019-05-05T16:45:08.476Z,8.60
2019-05-05T16:47:37.803Z,8.80
2019-05-05T16:50:07.711Z,8.90
2019-05-05T16:52:38.643Z,9.10
2019-05-05T16:55:09.719Z,9.30
2019-05-05T16:57:39.043Z,9.30
2019-05-05T17:00:08.924Z,9.40
2019-05-05T17:02:38.953Z,9.60
2019-05-05T17:05:08.355Z,9.60
2019-05-05T17:07:37.663Z,9.70
2019-05-05T17:10:07.391Z,9.80
2019-05-05T17:12:36.787Z,9.90
2019-05-05T17:15:08.699Z,10.00
2019-05-05T17:17:51.623Z,10.00
2019-05-05T17:20:25.324Z,10.00
2019-05-05T17:23:03.987Z,10.10
2019-05-05T17:25:34.262Z,10.10
2019-05-05T17:28:04.508Z,10.10
2019-05-05T17:30:34.257Z,10.20
2019-05-05T17:33:06.414Z,10.30
2019-05-05T17:35:35.667Z,10.30
2019-05-05T17:38:09.529Z,10.50
2019-05-05T17:40:45.867Z,10.40
2019-05-05T17:43:27.347Z,10.40
2019-05-05T17:45:55.542Z,10.40
2019-05-05T17:48:44.447Z,10.40
2019-05-05T17:51:15.423Z,10.40
2019-05-05T17:54:02.362Z,10.40
2019-05-05T17:56:33.496Z,10.30
2019-05-05T17:59:03.467Z,10.20
2019-05-05T18:01:33.701Z,10.10
2019-05-05T18:04:04.115Z,10.10
2019-05-05T18:06:35.215Z,10.10
2019-05-05T18:09:11.782Z,10.10
2019-05-05T18:11:48.425Z,10.00
2019-05-05T18:14:19.390Z,9.90
2019-05-05T18:16:48.779Z,9.80
2019-05-05T18:19:18.083Z,9.70
2019-05-05T18:21:47.435Z,9.70
2019-05-05T18:24:16.799Z,9.70
2019-05-05T18:26:46.082Z,9.60
2019-05-05T18:29:15.358Z,9.60
2019-05-05T18:31:44.650Z,9.60
2019-05-05T18:34:13.938Z,9.50
2019-05-05T18:36:44.597Z,9.40
2019-05-05T18:39:14.026Z,9.30
2019-05-05T18:41:45.024Z,9.20
2019-05-05T18:44:24.055Z,9.20
2019-05-05T18:47:14.908Z,9.10
2019-05-05T18:49:44.823Z,9.00
2019-05-05T18:52:14.198Z,8.90
2019-05-05T18:54:43.783Z,8.90
2019-05-05T18:57:13.348Z,8.90
2019-05-05T18:59:44.624Z,8.80
2019-05-05T19:02:18.269Z,8.70
2019-05-05T19:05:05.507Z,8.80
2019-05-05T19:07:36.568Z,8.80
2019-05-05T19:10:07.438Z,8.70
2019-05-05T19:12:36.773Z,8.70
2019-05-05T19:15:07.469Z,8.60
2019-05-05T19:17:36.802Z,8.60
2019-05-05T19:20:17.934Z,8.60
2019-05-05T19:22:48.846Z,8.50
2019-05-05T19:25:18.156Z,8.50
2019-05-05T19:27:47.527Z,8.50
2019-05-05T19:30:18.122Z,8.40
2019-05-05T19:32:47.500Z,8.30
2019-05-05T19:35:16.850Z,8.20
2019-05-05T19:37:46.134Z,8.20
2019-05-05T19:40:15.488Z,8.10
2019-05-05T19:42:46.273Z,8.00
2019-05-05T19:45:17.338Z,8.10
2019-05-05T19:47:46.694Z,8.00
2019-05-05T19:50:17.690Z,8.00
2019-05-05T19:52:46.976Z,7.90
2019-05-05T19:55:16.338Z,7.80
2019-05-05T19:57:45.615Z,7.70
2019-05-05T20:00:15.038Z,7.70
2019-05-05T20:02:44.408Z,7.60
2019-05-05T20:05:15.126Z,7.60
2019-05-05T20:07:44.460Z,7.60
2019-05-05T20:10:14.692Z,7.50
2019-05-05T20:12:46.835Z,7.50
2019-05-05T20:15:16.910Z,7.50
2019-05-05T20:17:46.210Z,7.50
2019-05-05T20:20:15.787Z,7.40
2019-05-05T20:22:45.255Z,7.40
2019-05-05T20:25:15.430Z,7.30
2019-05-05T20:27:44.715Z,7.30
2019-05-05T20:30:14.371Z,7.20
2019-05-05T20:32:45.838Z,7.20
2019-05-05T20:35:23.990Z,7.20
2019-05-05T20:37:57.898Z,7.10
2019-05-05T20:40:28.844Z,7.10
2019-05-05T20:42:58.136Z,7.00
2019-05-05T20:45:29.092Z,7.00
2019-05-05T20:47:58.512Z,6.90
2019-05-05T20:50:27.783Z,6.90
2019-05-05T20:52:57.140Z,6.90
2019-05-05T20:55:26.434Z,6.80
2019-05-05T20:57:55.785Z,6.80
2019-05-05T21:00:25.066Z,6.70
2019-05-05T21:02:57.251Z,6.70
2019-05-05T21:05:26.530Z,6.60
2019-05-05T21:07:55.830Z,6.60
2019-05-05T21:10:25.104Z,6.50
2019-05-05T21:12:54.618Z,6.50
2019-05-05T21:15:24.713Z,6.40
2019-05-05T21:17:54.365Z,6.40
2019-05-05T21:20:24.212Z,6.30
2019-05-05T21:22:55.180Z,6.30
2019-05-05T21:25:33.786Z,6.20
2019-05-05T21:28:03.700Z,6.20
2019-05-05T21:30:33.815Z,6.20
2019-05-05T21:33:04.403Z,6.10
2019-05-05T21:35:34.872Z,6.10
2019-05-05T21:38:04.846Z,6.00
2019-05-05T21:40:34.743Z,6.00
2019-05-05T21:43:04.935Z,5.90
2019-05-05T21:45:34.850Z,5.90
2019-05-05T21:48:04.552Z,5.80
2019-05-05T21:50:38.385Z,5.80
2019-05-05T21:53:18.202Z,5.80
2019-05-05T21:55:55.050Z,5.70
2019-05-05T21:58:28.681Z,5.70
2019-05-05T22:00:59.596Z,5.70
2019-05-05T22:03:34.713Z,5.60
2019-05-05T22:06:04.724Z,5.60
2019-05-05T22:08:34.652Z,5.50
2019-05-05T22:11:04.599Z,5.50
2019-05-05T22:13:36.192Z,5.40
2019-05-05T22:16:05.116Z,5.40
2019-05-05T22:18:34.484Z,5.40
2019-05-05T22:21:08.126Z,5.40
2019-05-05T22:23:37.413Z,5.30
2019-05-05T22:26:06.775Z,5.30
2019-05-05T22:28:36.050Z,5.30
2019-05-05T22:31:05.351Z,5.30
2019-05-05T22:33:34.635Z,5.20
2019-05-05T22:36:06.884Z,5.20
2019-05-05T22:38:35.061Z,5.20
2019-05-05T22:41:04.366Z,5.20
2019-05-05T22:43:34.670Z,5.10
2019-05-05T22:46:04.030Z,5.10
2019-05-05T22:48:36.384Z,5.00
2019-05-05T22:51:05.693Z,5.00
2019-05-05T22:53:36.702Z,5.00
2019-05-05T22:56:06.761Z,5.00
2019-05-05T22:58:36.058Z,5.00
2019-05-05T23:01:07.056Z,4.90
2019-05-05T23:03:55.235Z,4.90
2019-05-05T23:06:29.886Z,4.90
2019-05-05T23:08:59.246Z,4.90
2019-05-05T23:11:28.625Z,4.80
2019-05-05T23:14:15.577Z,4.80
2019-05-05T23:16:46.532Z,4.80
2019-05-05T23:19:15.809Z,4.80
2019-05-05T23:21:47.975Z,4.80
2019-05-05T23:24:34.495Z,4.80
2019-05-05T23:27:05.419Z,4.80
2019-05-05T23:29:34.741Z,4.70
2019-05-05T23:32:04.095Z,4.70
2019-05-05T23:34:33.887Z,4.70
2019-05-05T23:37:05.513Z,4.70
2019-05-05T23:39:39.079Z,4.70
2019-05-05T23:42:08.365Z,4.60
2019-05-05T23:44:38.504Z,4.60
2019-05-05T23:47:07.821Z,4.60
2019-05-05T23:49:39.919Z,4.50
2019-05-05T23:52:09.215Z,4.50
2019-05-05T23:54:38.513Z,4.50
2019-05-05T23:57:07.806Z,4.50
2019-05-05T23:59:37.188Z,4.40
